Time;durP1;ratioP1;P1;durP2;ratioP2;P2;SDS_P1;SDS_P2;PMS_P1;PMS_P2;Temp;Humidity;BMP_temperature;BMP_pressure;BME280_temperature;BME280_humidity;BME280_pressure;Samples;Min_cycle;Max_cycle;Signal;HPM_P1;HPM_P2
2022/08/12 04:02:23;;;;;;;91.85;41.58;;;;;;;17.59;66.14;100601.66;6286258;22;20054;-89
2022/08/12 04:04:51;;;;;;;96.50;45.03;;;;;;;17.60;66.63;100592.22;6286976;22;20023;-89
2022/08/12 04:07:30;;;;;;;100.53;46.73;;;;;;;17.76;66.80;100614.66;6266184;22;20019;-89
2022/08/12 04:10:07;;;;;;;104.57;48.85;;;;;;;17.83;66.54;100594.78;6287598;22;20257;-88
2022/08/12 04:15:24;;;;;;;114.78;47.05;;;;;;;17.92;64.44;100598.34;6286246;22;20069;-88
2022/08/12 04:17:51;;;;;;;92.70;41.85;;;;;;;18.03;63.57;100610.66;6320710;22;20038;-88
2022/08/12 04:20:21;;;;;;;95.57;44.13;;;;;;;18.10;62.94;100612.91;6286659;22;20026;-87
2022/08/12 04:22:52;;;;;;;94.93;46.38;;;;;;;18.00;63.52;100589.19;6240391;22;19995;-87
2022/08/12 04:25:26;;;;;;;102.18;46.63;;;;;;;18.23;63.87;100616.59;6242914;22;20019;-89
2022/08/12 04:27:54;;;;;;;89.35;42.30;;;;;;;18.13;62.98;100583.78;6264853;22;20487;-89
2022/08/12 04:30:22;;;;;;;93.30;45.03;;;;;;;18.20;63.07;100589.59;6242952;22;20019;-88
2022/08/12 04:32:51;;;;;;;105.28;43.67;;;;;;;18.42;63.21;100617.00;6290432;22;20038;-88
2022/08/12 04:35:19;;;;;;;107.90;42.47;;;;;;;18.48;63.93;100618.44;6265917;22;19999;-88
2022/08/12 04:37:53;;;;;;;72.10;31.05;;;;;;;18.36;62.09;100587.06;6257710;22;20478;-89
2022/08/12 04:40:22;;;;;;;51.70;23.95;;;;;;;18.64;60.93;100612.31;6262943;22;20026;-89
2022/08/12 04:42:50;;;;;;;43.92;22.33;;;;;;;18.53;60.73;100582.22;6237718;22;20027;-88
2022/08/12 04:45:48;;;;;;;45.80;23.38;;;;;;;18.79;59.98;100611.75;6264548;22;20018;-88
2022/08/12 04:48:21;;;;;;;45.58;23.77;;;;;;;18.86;60.18;100611.22;6266404;22;20008;-89
2022/08/12 04:54:26;;;;;;;46.65;25.02;;;;;;;18.80;60.37;100574.59;6248743;22;20123;-89
2022/08/12 04:56:52;;;;;;;73.65;25.08;;;;;;;19.11;59.70;100604.66;6192813;23;20016;-86
2022/08/12 04:59:20;;;;;;;64.28;23.83;;;;;;;18.97;59.60;100568.94;6219579;23;20465;-88
2022/08/12 05:01:51;;;;;;;50.13;23.27;;;;;;;19.12;58.63;100586.06;6193980;23;20016;-96
2022/08/12 05:04:31;;;;;;;42.45;23.10;;;;;;;18.93;58.72;100536.66;6217984;23;20326;-90
2022/08/12 05:06:57;;;;;;;55.10;24.73;;;;;;;19.15;58.47;100560.44;6193309;23;20513;-89
2022/08/12 05:09:26;;;;;;;50.63;24.60;;;;;;;19.36;57.26;100575.06;6217558;23;20475;-87
2022/08/12 05:11:54;;;;;;;46.47;24.38;;;;;;;19.49;58.21;100587.03;6244592;22;20012;-89
2022/08/12 05:14:20;;;;;;;42.45;23.75;;;;;;;19.57;58.15;100586.13;6242361;23;20020;-91
2022/08/12 05:16:50;;;;;;;59.80;23.98;;;;;;;19.84;59.22;100612.47;6242541;23;20108;-87
2022/08/12 05:19:16;;;;;;;61.42;23.88;;;;;;;20.00;58.76;100601.50;6242717;23;20023;-87
2022/08/12 05:21:45;;;;;;;40.45;21.33;;;;;;;20.05;58.80;100598.50;6192778;23;20016;-88
2022/08/12 05:24:37;;;;;;;57.65;23.20;;;;;;;20.24;57.84;100608.25;6243512;23;20522;-89
2022/08/12 05:27:06;;;;;;;49.90;23.17;;;;;;;20.25;57.84;100604.28;6219890;23;20480;-88
2022/08/12 05:29:33;;;;;;;50.20;22.80;;;;;;;20.23;58.16;100578.81;6196986;23;20050;-90
2022/08/12 05:32:00;;;;;;;45.92;20.85;;;;;;;20.45;55.68;100600.59;6196311;23;20020;-91
2022/08/12 05:34:28;;;;;;;52.60;20.20;;;;;;;20.44;56.65;100584.28;6243964;23;20327;-89
2022/08/12 05:36:54;;;;;;;51.97;21.20;;;;;;;20.64;56.89;100600.03;6195378;23;20098;-89
2022/08/12 05:39:21;;;;;;;39.15;17.38;;;;;;;20.69;56.08;100590.63;6217708;23;20046;-89
2022/08/12 05:41:47;;;;;;;49.83;20.48;;;;;;;20.73;55.58;100584.03;6242484;23;20016;-88
2022/08/12 05:44:38;;;;;;;38.33;17.52;;;;;;;20.95;56.07;100601.34;6217110;23;20016;-89
2022/08/12 05:47:05;;;;;;;40.13;15.40;;;;;;;21.03;54.96;100605.97;6216974;23;20020;-88
2022/08/12 05:49:33;;;;;;;35.00;14.07;;;;;;;21.10;54.30;100604.19;6217776;23;20020;-89
2022/08/12 05:52:01;;;;;;;39.63;13.93;;;;;;;21.18;56.34;100596.06;6192630;23;20020;-89
2022/08/12 05:54:27;;;;;;;28.10;13.38;;;;;;;21.35;56.41;100604.94;6192277;23;20027;-91
2022/08/12 05:56:53;;;;;;;32.92;13.30;;;;;;;21.19;55.90;100550.38;6195196;23;20543;-89
2022/08/12 05:59:20;;;;;;;26.08;11.30;;;;;;;21.53;53.97;100599.06;6244714;23;20107;-89
2022/08/12 06:01:47;;;;;;;16.17;8.00;;;;;;;21.44;51.34;100585.31;6218976;23;20038;-87
2022/08/12 06:04:13;;;;;;;28.75;10.60;;;;;;;21.62;52.54;100591.34;6220183;23;20012;-87
2022/08/12 06:06:43;;;;;;;15.35;7.20;;;;;;;21.72;49.56;100596.41;6196194;23;20453;-89
2022/08/12 06:09:10;;;;;;;10.57;6.43;;;;;;;21.78;50.25;100594.16;6195524;23;20031;-90
2022/08/12 06:11:41;;;;;;;13.52;6.32;;;;;;;21.88;49.00;100592.81;6220254;23;20023;-89
2022/08/12 06:14:07;;;;;;;15.60;7.03;;;;;;;21.96;49.50;100603.00;6245737;23;20026;-88
2022/08/12 06:16:34;;;;;;;;;;;;;;;22.03;48.39;100586.47;6222666;23;20442;-92
2022/08/12 06:19:01;;;;;;;25.02;7.50;;;;;;;22.07;49.90;100592.13;6196168;23;20354;-90
2022/08/12 06:21:29;;;;;;;15.80;6.57;;;;;;;22.10;49.82;100592.19;6194439;23;20103;-90
2022/08/12 06:23:57;;;;;;;15.90;6.13;;;;;;;22.18;49.78;100591.22;6222792;23;20102;-89
2022/08/12 06:26:23;;;;;;;14.20;6.05;;;;;;;22.00;50.19;100551.78;6200217;23;20023;-90
2022/08/12 06:28:49;;;;;;;15.32;5.50;;;;;;;22.20;47.51;100583.34;6199231;23;20020;-88
2022/08/12 06:31:22;;;;;;;;;;;;;;;22.34;47.00;100595.97;6249618;22;20380;-90
2022/08/12 06:33:49;;;;;;;19.23;7.80;;;;;;;22.40;49.70;100589.78;6163383;23;19926;-88
2022/08/12 06:36:18;;;;;;;12.88;4.97;;;;;;;22.52;49.20;100597.22;6188891;23;20016;-90
2022/08/12 06:38:46;;;;;;;12.80;5.10;;;;;;;22.63;49.75;100591.91;6164235;23;20013;-87
2022/08/12 06:43:58;;;;;;;17.60;7.10;;;;;;;22.75;48.40;100583.41;6188622;23;20103;-89
2022/08/12 06:46:27;;;;;;;16.90;5.70;;;;;;;22.63;49.67;100555.66;6162543;23;20021;-88
2022/08/12 06:49:03;;;;;;;26.33;7.90;;;;;;;22.93;49.47;100589.41;6188393;23;20115;-88
2022/08/12 06:51:31;;;;;;;13.68;5.72;;;;;;;23.04;49.90;100584.03;6189601;23;20016;-89
2022/08/12 06:53:58;;;;;;;8.13;4.85;;;;;;;22.91;48.06;100563.81;6201034;23;20020;-89
2022/08/12 06:56:24;;;;;;;29.25;9.20;;;;;;;23.13;48.96;100582.66;6193763;23;20225;-88
2022/08/12 06:58:51;;;;;;;16.17;6.30;;;;;;;23.04;49.02;100556.94;6164033;23;20079;-90
2022/08/12 07:01:26;;;;;;;;;;;;;;;23.34;48.46;100587.03;6164442;23;20055;-89
2022/08/12 07:04:58;;;;;;;18.17;5.67;;;;;;;23.34;48.04;100587.84;6163732;23;19916;-90
2022/08/12 07:07:24;;;;;;;18.95;8.15;;;;;;;23.07;49.70;100535.91;6163745;23;20020;-89
2022/08/12 07:09:50;;;;;;;26.52;6.72;;;;;;;23.24;49.42;100543.00;6163617;23;20047;-89
2022/08/12 07:12:23;;;;;;;8.13;4.97;;;;;;;23.58;46.57;100592.31;6223425;22;20520;-90
2022/08/12 07:14:50;;;;;;;19.80;8.13;;;;;;;23.42;45.96;100547.75;6221249;23;20083;-90
2022/08/12 07:17:16;;;;;;;35.30;19.17;;;;;;;23.29;47.32;100515.59;6172604;23;20016;-90
2022/08/12 07:19:50;;;;;;;126.10;66.22;;;;;;;23.74;46.78;100577.44;6199801;23;20027;-90
2022/08/12 07:22:21;;;;;;;233.52;107.57;;;;;;;23.36;46.87;100515.72;6199073;23;20637;-91
2022/08/12 07:25:29;;;;;;;249.05;118.28;;;;;;;23.65;45.78;100550.56;6173686;23;20361;-90
2022/08/12 07:28:38;;;;;;;39.72;18.42;;;;;;;23.30;45.93;100485.72;6246102;23;20115;-90
2022/08/12 07:31:07;;;;;;;166.77;84.20;;;;;;;23.49;46.04;100510.78;6246074;23;20041;-90
2022/08/12 07:33:39;;;;;;;30.23;14.70;;;;;;;23.45;43.45;100495.97;6245707;23;20062;-90
2022/08/12 07:36:09;;;;;;;52.20;25.13;;;;;;;23.81;44.63;100538.50;6220037;23;20048;-90
2022/08/12 07:38:43;;;;;;;55.63;22.05;;;;;;;24.05;42.80;100577.22;6218880;23;20058;-91
2022/08/12 07:41:13;;;;;;;272.83;144.27;;;;;;;23.98;42.26;100560.34;6219863;23;20016;-92
2022/08/12 07:44:12;;;;;;;19.73;8.23;;;;;;;24.14;41.90;100571.38;6172055;23;20070;-92
2022/08/12 07:46:42;;;;;;;13.85;4.63;;;;;;;24.11;41.20;100563.75;6196156;23;20012;-91
2022/08/12 07:49:11;;;;;;;103.60;50.00;;;;;;;24.24;42.37;100569.91;6222993;23;20016;-91
2022/08/12 07:51:39;;;;;;;16.35;5.75;;;;;;;24.19;40.64;100561.84;6255831;22;20015;-91
2022/08/12 07:54:09;;;;;;;367.38;165.15;;;;;;;24.12;42.32;100543.00;6277215;22;20069;-88
2022/08/12 07:56:37;;;;;;;27.55;15.32;;;;;;;24.23;43.15;100554.31;6276685;22;20020;-88
2022/08/12 07:59:07;;;;;;;19.83;8.15;;;;;;;24.42;42.25;100573.81;6276299;22;20019;-90
2022/08/12 08:01:38;;;;;;;18.58;7.75;;;;;;;24.25;43.41;100535.22;6248994;22;20035;-87
2022/08/12 08:06:51;;;;;;;19.52;6.18;;;;;;;24.35;41.52;100548.53;6250807;22;20016;-89
2022/08/12 08:09:20;;;;;;;17.15;4.70;;;;;;;24.58;40.72;100573.66;6225804;22;20031;-89
2022/08/12 08:14:32;;;;;;;18.20;4.60;;;;;;;24.52;40.47;100552.81;6249168;22;20110;-90
2022/08/12 08:16:59;;;;;;;;;;;;;;;24.60;41.27;100577.69;6277662;22;20012;-88
2022/08/12 08:19:27;;;;;;;17.85;7.10;;;;;;;24.43;40.81;100541.09;6249810;22;19915;-89
2022/08/12 08:21:57;;;;;;;14.32;4.50;;;;;;;24.49;41.12;100556.34;6251566;22;20015;-88
2022/08/12 08:24:26;;;;;;;11.93;4.63;;;;;;;24.27;40.76;100508.50;6226124;22;20020;-88
2022/08/12 08:27:00;;;;;;;8.38;4.03;;;;;;;24.54;40.22;100547.66;6249949;22;20023;-89
2022/08/12 08:29:28;;;;;;;17.05;6.93;;;;;;;24.44;40.80;100537.94;6224774;22;20016;-89
2022/08/12 08:31:57;;;;;;;15.98;4.78;;;;;;;24.57;39.08;100552.50;6223724;22;20015;-88
2022/08/12 08:34:25;;;;;;;12.45;3.78;;;;;;;24.66;39.42;100566.16;6276954;22;20157;-91
2022/08/12 08:36:52;;;;;;;77.47;32.53;;;;;;;24.72;39.84;100556.28;6223948;22;20077;-89
2022/08/12 08:39:21;;;;;;;211.15;101.15;;;;;;;24.71;41.46;100541.50;6248629;22;20016;-91
2022/08/12 08:44:40;;;;;;;7.90;4.22;;;;;;;24.82;38.29;100547.22;6224504;22;20072;-91
2022/08/12 08:47:07;;;;;;;19.05;8.00;;;;;;;24.93;41.21;100553.75;6248193;22;20030;-90
2022/08/12 08:49:35;;;;;;;16.50;6.05;;;;;;;24.97;40.32;100560.22;6274059;22;20018;-91
2022/08/12 08:52:07;;;;;;;10.85;5.40;;;;;;;24.77;38.67;100528.00;6225127;22;20465;-90
2022/08/12 08:54:58;;;;;;;16.70;4.03;;;;;;;25.07;39.62;100558.72;6255420;22;20358;-89
2022/08/12 08:57:25;;;;;;;19.02;8.07;;;;;;;25.08;39.31;100561.13;6200201;22;20012;-90
2022/08/12 08:59:52;;;;;;;10.23;4.63;;;;;;;24.95;39.31;100540.19;6201352;22;20103;-88
2022/08/12 09:02:18;;;;;;;;;;;;;;;25.08;38.84;100549.94;6251001;22;20069;-90
2022/08/12 09:04:44;;;;;;;14.65;5.60;;;;;;;25.13;39.08;100546.03;6224899;22;19937;-89
2022/08/12 09:07:22;;;;;;;12.25;4.43;;;;;;;25.02;39.40;100522.69;6277229;22;20086;-90
2022/08/12 09:09:50;;;;;;;8.70;4.28;;;;;;;24.98;38.15;100505.06;6249176;22;20019;-90
2022/08/12 09:16:02;;;;;;;13.63;3.70;;;;;;;25.29;37.61;100543.00;6248282;22;20019;-90
2022/08/12 09:18:30;;;;;;;17.42;7.15;;;;;;;25.13;37.47;100518.03;6223476;22;20026;-88
2022/08/12 09:20:56;;;;;;;15.00;4.13;;;;;;;25.09;36.34;100503.97;6249360;22;20016;-89
2022/08/12 09:23:26;;;;;;;11.27;4.82;;;;;;;25.37;39.21;100533.50;6248578;22;20016;-89
2022/08/12 09:25:52;;;;;;;63.92;26.95;;;;;;;25.26;39.61;100508.19;6274960;22;20392;-89
2022/08/12 09:28:24;;;;;;;29.45;14.75;;;;;;;25.37;40.00;100521.50;6248854;22;20065;-89
2022/08/12 09:31:16;;;;;;;14.52;6.57;;;;;;;25.59;37.85;100536.50;6277747;22;20039;-89
2022/08/12 09:33:42;;;;;;;11.25;3.72;;;;;;;25.41;38.77;100486.75;6195841;23;20016;-90
2022/08/12 09:36:08;;;;;;;12.90;5.03;;;;;;;25.56;39.87;100496.06;6195138;23;20065;-89
2022/08/12 09:38:34;;;;;;;10.57;5.32;;;;;;;25.67;40.28;100493.41;6247060;23;20020;-90
2022/08/12 09:41:01;;;;;;;12.13;4.20;;;;;;;25.75;37.90;100509.06;6247078;23;20082;-90
2022/08/12 09:46:15;;;;;;;22.52;7.18;;;;;;;25.82;39.21;100516.75;6196020;23;20047;-90
2022/08/12 09:48:43;;;;;;;24.80;12.20;;;;;;;25.92;39.33;100514.03;6220186;23;20378;-90
2022/08/12 09:51:11;;;;;;;9.80;3.95;;;;;;;25.88;38.29;100492.78;6195438;23;20464;-89
2022/08/12 09:53:38;;;;;;;10.02;3.88;;;;;;;25.87;36.35;100503.19;6246663;23;20019;-90
2022/08/12 09:56:10;;;;;;;24.08;9.85;;;;;;;25.89;38.21;100495.19;6220712;23;20102;-89
2022/08/12 09:58:40;;;;;;;19.52;7.35;;;;;;;25.84;36.13;100483.56;6222371;23;20080;-89
2022/08/12 10:01:07;;;;;;;18.17;4.63;;;;;;;26.08;37.34;100507.34;6247092;23;20022;-90
2022/08/12 10:03:36;;;;;;;10.77;5.18;;;;;;;26.13;37.51;100496.59;6223268;23;20345;-88
2022/08/12 10:06:05;;;;;;;9.82;4.35;;;;;;;25.88;37.95;100445.97;6223341;23;20054;-89
2022/08/12 10:08:34;;;;;;;13.75;7.07;;;;;;;26.04;37.90;100465.28;6221913;23;20024;-88
2022/08/12 10:13:52;;;;;;;17.45;4.35;;;;;;;26.13;34.74;100464.94;6220703;23;20019;-88
2022/08/12 10:16:27;;;;;;;15.57;4.65;;;;;;;26.20;35.31;100473.41;6246958;23;20039;-91
2022/08/12 10:19:02;;;;;;;200.43;116.38;;;;;;;26.33;37.86;100483.09;6245163;23;20446;-87
2022/08/12 10:21:40;;;;;;;24.47;10.67;;;;;;;26.10;36.84;100440.50;6245359;23;20354;-90
2022/08/12 10:24:21;;;;;;;24.08;10.90;;;;;;;26.27;37.93;100453.00;6246572;23;20043;-88
2022/08/12 10:29:46;;;;;;;26.33;14.65;;;;;;;26.35;35.50;100449.84;6194637;23;20454;-88
2022/08/12 10:32:22;;;;;;;40.67;13.38;;;;;;;26.60;34.45;100478.03;6225357;23;20217;-89
2022/08/12 10:34:49;;;;;;;22.05;6.40;;;;;;;26.55;34.09;100469.19;6244945;23;20028;-89
2022/08/12 10:37:19;;;;;;;8.02;4.03;;;;;;;26.61;35.68;100478.84;6244173;23;20472;-88
2022/08/12 10:39:51;;;;;;;;;;;;;;;26.70;33.69;100463.25;6246322;23;20345;-89
2022/08/12 10:45:08;;;;;;;13.93;5.85;;;;;;;26.69;35.96;100444.81;6246856;23;20022;-87
2022/08/12 10:47:36;;;;;;;13.27;6.03;;;;;;;26.61;35.15;100431.16;6220630;23;20044;-87
2022/08/12 10:50:08;;;;;;;13.07;5.05;;;;;;;26.71;34.18;100450.03;6220445;23;20019;-88
2022/08/12 10:52:37;;;;;;;12.65;4.30;;;;;;;26.66;33.64;100433.59;6218598;23;20020;-90
2022/08/12 10:55:04;;;;;;;10.70;4.90;;;;;;;26.76;33.67;100432.81;6221236;23;20016;-89
2022/08/12 10:57:30;;;;;;;;;;;;;;;26.92;32.25;100440.88;6249695;23;20022;-90
2022/08/12 10:59:58;;;;;;;20.88;11.35;;;;;;;26.87;34.89;100421.63;6247585;23;20443;-91
2022/08/12 11:02:27;;;;;;;35.95;6.85;;;;;;;27.09;35.64;100440.13;6220113;23;20349;-91
2022/08/12 11:04:58;;;;;;;21.50;11.25;;;;;;;27.23;34.39;100444.97;6219217;23;20125;-89
2022/08/12 11:07:28;;;;;;;37.47;6.25;;;;;;;27.28;33.96;100444.56;6247628;23;20016;-90
2022/08/12 11:10:02;;;;;;;23.65;11.95;;;;;;;27.11;32.49;100401.22;6247611;23;20551;-88
2022/08/12 11:12:31;;;;;;;13.75;6.63;;;;;;;27.14;33.76;100397.63;6248943;23;20012;-94
2022/08/12 11:15:04;;;;;;;24.37;10.20;;;;;;;27.22;32.56;100398.47;6227197;23;20042;-92
2022/08/12 11:20:18;;;;;;;17.13;8.60;;;;;;;27.40;32.44;100421.72;6157899;23;20027;-93
2022/08/12 11:22:59;;;;;;;13.32;4.97;;;;;;;27.48;33.35;100421.72;6109520;23;20527;-94
2022/08/12 11:25:27;;;;;;;15.13;6.43;;;;;;;27.43;33.69;100396.84;6130870;23;20029;-93
2022/08/12 11:27:54;;;;;;;31.02;17.50;;;;;;;27.68;35.94;100413.69;6133583;23;20044;-92
2022/08/12 11:30:21;;;;;;;9.68;5.25;;;;;;;27.49;33.84;100386.84;6158312;23;20091;-91
2022/08/12 11:32:50;;;;;;;;;;;;;;;27.75;34.68;100411.69;6138654;23;20022;-92
2022/08/12 11:35:16;;;;;;;11.75;5.40;;;;;;;27.86;35.43;100412.50;6125777;23;19942;-89
2022/08/12 11:37:43;;;;;;;10.82;6.05;;;;;;;27.68;33.63;100375.16;6125717;23;20032;-90
2022/08/12 11:40:10;;;;;;;23.58;11.30;;;;;;;27.96;35.76;100396.00;6101490;23;20014;-93
2022/08/12 11:42:36;;;;;;;20.50;9.20;;;;;;;28.03;34.54;100391.16;6101692;23;20022;-89
2022/08/12 11:45:05;;;;;;;39.42;12.63;;;;;;;28.07;33.59;100391.16;6100624;23;20475;-90
2022/08/12 11:47:31;;;;;;;19.98;8.98;;;;;;;28.07;35.27;100366.66;6103847;23;20070;-92
2022/08/12 11:49:57;;;;;;;32.05;7.35;;;;;;;28.09;32.86;100360.63;6106579;23;20057;-93
2022/08/12 11:52:23;;;;;;;15.52;8.13;;;;;;;28.02;33.44;100333.34;6079921;23;20021;-90
2022/08/12 11:54:50;;;;;;;11.80;6.40;;;;;;;28.22;32.69;100347.72;6081153;23;20359;-93
2022/08/12 11:57:17;;;;;;;38.22;21.30;;;;;;;28.56;33.07;100378.13;6129684;23;20020;-90
2022/08/12 11:59:43;;;;;;;51.58;31.65;;;;;;;28.46;32.97;100359.28;6202744;23;20019;-91
2022/08/12 12:02:10;;;;;;;30.90;6.35;;;;;;;28.52;33.91;100352.03;6201926;23;20110;-90
2022/08/12 12:04:37;;;;;;;22.58;5.75;;;;;;;28.75;32.61;100372.00;6177803;23;20102;-90
2022/08/12 12:07:03;;;;;;;22.92;9.25;;;;;;;28.68;31.23;100369.22;6203036;23;20020;-93
2022/08/12 12:09:29;;;;;;;;;;;;;;;28.70;32.67;100368.78;6179761;23;20474;-93
2022/08/12 12:12:16;;;;;;;9.93;4.50;;;;;;;28.73;32.08;100365.16;6201722;23;19922;-90
2022/08/12 12:14:42;;;;;;;12.48;7.30;;;;;;;28.44;31.06;100317.50;6251769;23;20020;-89
2022/08/12 12:17:09;;;;;;;20.75;8.30;;;;;;;28.84;32.07;100353.81;6252199;23;20016;-93
2022/08/12 12:19:37;;;;;;;21.00;5.30;;;;;;;28.72;31.18;100324.97;6252263;23;20019;-90
2022/08/12 12:22:03;;;;;;;40.15;15.35;;;;;;;28.84;32.92;100346.22;6224069;23;20016;-92
2022/08/12 12:24:29;;;;;;;11.15;5.32;;;;;;;28.72;31.93;100338.25;6169765;23;20016;-90
2022/08/12 12:26:55;;;;;;;9.20;4.97;;;;;;;28.63;31.53;100330.25;6193676;23;20065;-91
2022/08/12 12:29:22;;;;;;;340.85;47.42;;;;;;;28.70;31.87;100321.75;6169393;23;20080;-90
2022/08/12 12:31:48;;;;;;;306.33;33.10;;;;;;;28.73;32.80;100325.75;6201273;22;20016;-90
2022/08/12 12:34:17;;;;;;;59.33;8.93;;;;;;;28.87;30.18;100353.81;6248125;22;20016;-91
2022/08/12 12:37:12;;;;;;;44.50;9.27;;;;;;;28.63;29.45;100333.06;6255921;22;20094;-90
2022/08/12 12:39:39;;;;;;;57.20;15.15;;;;;;;28.76;29.79;100353.88;6199095;22;20015;-89
2022/08/12 12:42:06;;;;;;;51.10;13.52;;;;;;;28.59;30.18;100312.59;6224534;22;20583;-92
2022/08/12 12:44:33;;;;;;;74.22;12.85;;;;;;;28.79;30.65;100343.81;6199568;22;20110;-93
2022/08/12 12:46:59;;;;;;;51.22;20.35;;;;;;;28.73;31.27;100326.56;6199199;22;20073;-92
2022/08/12 12:49:25;;;;;;;66.20;22.08;;;;;;;28.83;30.60;100340.97;6199067;22;20043;-92
2022/08/12 12:51:53;;;;;;;29.65;7.72;;;;;;;28.66;28.59;100331.44;6223648;22;20053;-94
2022/08/12 12:54:28;;;;;;;48.70;16.50;;;;;;;28.89;29.35;100347.78;6224687;22;20156;-90
2022/08/12 12:56:54;;;;;;;58.72;17.20;;;;;;;28.88;31.03;100318.03;6279333;22;20020;-93
2022/08/12 12:59:23;;;;;;;62.75;24.35;;;;;;;28.95;31.96;100312.34;6251986;22;20062;-91
2022/08/12 13:01:50;;;;;;;55.08;11.55;;;;;;;28.90;31.34;100302.31;6252838;22;20015;-94
2022/08/12 13:04:36;;;;;;;36.65;7.75;;;;;;;28.78;29.85;100281.09;6232033;22;20007;-91
2022/08/12 13:07:02;;;;;;;;;;;;;;;29.13;31.65;100337.56;6211797;22;20551;-93
2022/08/12 13:09:30;;;;;;;40.90;13.27;;;;;;;28.94;29.34;100305.94;6207150;22;19949;-96
2022/08/12 13:11:58;;;;;;;47.47;15.35;;;;;;;29.00;28.54;100317.56;6206025;22;20016;-93
2022/08/12 13:14:29;;;;;;;47.22;17.40;;;;;;;28.68;31.73;100256.66;6227829;22;20020;-90
2022/08/12 13:17:20;;;;;;;56.42;15.60;;;;;;;28.93;31.48;100281.78;6203109;22;20110;-95
2022/08/12 13:20:46;;;;;;;579.78;64.40;;;;;;;29.17;30.56;100330.69;6231308;22;20011;-94
2022/08/12 13:26:06;;;;;;;54.30;16.10;;;;;;;28.73;30.28;100230.09;6246760;22;20020;-94
2022/08/12 13:29:33;;;;;;;239.15;34.22;;;;;;;29.09;29.56;100317.09;6180922;23;20020;-93
2022/08/12 13:32:28;;;;;;;148.52;19.55;;;;;;;29.01;31.30;100307.91;6171759;23;20116;-92
2022/08/12 13:35:22;;;;;;;108.28;15.63;;;;;;;28.89;30.18;100311.19;6203938;23;20057;-95
2022/08/12 13:38:00;;;;;;;140.20;21.17;;;;;;;28.77;30.46;100275.88;6180986;23;20135;-93
2022/08/12 13:41:17;;;;;;;47.47;18.08;;;;;;;28.89;30.68;100277.41;6201329;23;20020;-94
2022/08/12 13:44:10;;;;;;;100.72;14.43;;;;;;;28.46;30.66;100221.47;6186879;23;20031;-93
2022/08/12 13:46:48;;;;;;;319.40;43.13;;;;;;;28.64;30.81;100260.72;6201758;23;20028;-92
2022/08/12 13:49:39;;;;;;;202.82;27.10;;;;;;;28.51;31.36;100227.47;6188389;23;20001;-93
2022/08/12 13:52:35;;;;;;;32.47;8.23;;;;;;;28.90;28.81;100270.56;6139307;23;20045;-95
2022/08/12 13:58:24;;;;;;;22.70;8.52;;;;;;;28.82;27.64;100258.56;6139767;23;20045;-93
2022/08/12 14:00:58;;;;;;;52.42;10.48;;;;;;;28.42;29.90;100215.88;6116695;23;20017;-94
2022/08/12 14:03:37;;;;;;;48.45;10.10;;;;;;;28.38;29.70;100197.38;6094888;23;20026;-94
2022/08/12 14:06:29;;;;;;;99.78;15.68;;;;;;;28.91;32.54;100287.03;6117327;22;21114;-96
2022/08/12 14:16:09;;;;;;;133.30;15.73;;;;;;;28.10;30.22;100196.38;6337810;22;20097;-92
2022/08/12 14:18:41;;;;;;;32.60;5.97;;;;;;;28.48;28.59;100255.63;6263142;22;20018;-93
2022/08/12 14:21:11;;;;;;;28.80;8.95;;;;;;;28.05;28.18;100182.75;6263690;22;20097;-93
2022/08/12 14:23:52;;;;;;;34.53;8.50;;;;;;;28.47;31.30;100235.09;6265885;22;20022;-93
2022/08/12 14:26:20;;;;;;;54.58;10.93;;;;;;;28.79;30.58;100279.88;6287827;22;20015;-92
2022/08/12 14:29:12;;;;;;;57.22;17.30;;;;;;;28.75;30.93;100276.31;6314861;22;20011;-89
2022/08/12 14:31:38;;;;;;;13.77;4.72;;;;;;;28.32;28.60;100223.13;6262518;22;20687;-88
2022/08/12 14:34:19;;;;;;;16.55;4.70;;;;;;;28.46;29.41;100249.59;6293033;22;20042;-94
2022/08/12 14:41:42;;;;;;;98.78;31.83;;;;;;;28.47;31.35;100249.16;6343813;22;20011;-93
2022/08/12 14:44:09;;;;;;;55.20;16.17;;;;;;;28.51;31.15;100247.16;6264692;22;20440;-94
2022/08/12 14:46:35;;;;;;;54.13;18.10;;;;;;;28.65;30.78;100263.13;6264515;22;20015;-92
2022/08/12 14:49:01;;;;;;;72.15;28.27;;;;;;;28.27;30.26;100201.06;6289826;22;20019;-93
2022/08/12 14:51:29;;;;;;;26.95;10.38;;;;;;;28.71;29.18;100252.22;6289453;22;20097;-93
2022/08/12 14:54:13;;;;;;;48.03;11.77;;;;;;;28.36;31.13;100199.81;6318441;22;20018;-92
2022/08/12 14:56:40;;;;;;;88.50;17.10;;;;;;;28.68;30.36;100265.13;6291795;22;20403;-93
2022/08/12 15:02:15;;;;;;;34.17;5.90;;;;;;;28.28;27.35;100194.25;6314723;22;20056;-93
2022/08/12 15:04:43;;;;;;;43.55;9.25;;;;;;;28.69;29.21;100260.28;6114292;23;20108;-93
2022/08/12 15:07:50;;;;;;;53.88;11.75;;;;;;;28.94;31.25;100291.03;6165422;23;20052;-94
2022/08/12 15:10:27;;;;;;;268.67;31.80;;;;;;;28.79;31.95;100268.63;6163020;23;20100;-95
2022/08/12 15:13:22;;;;;;;;;;;;;;;28.90;30.33;100287.44;6113559;23;20041;-92
2022/08/12 15:16:13;;;;;;;277.87;33.50;;;;;;;28.77;31.00;100282.34;6114927;23;19920;-95
2022/08/12 15:18:40;;;;;;;170.75;32.28;;;;;;;28.82;32.60;100285.91;6208269;22;20032;-93
2022/08/12 15:21:08;;;;;;;253.50;25.38;;;;;;;28.44;30.72;100240.75;6226810;23;20016;-94
2022/08/12 15:23:45;;;;;;;318.10;25.50;;;;;;;28.76;32.29;100282.72;6247734;22;20067;-91
2022/08/12 15:27:06;;;;;;;323.23;25.73;;;;;;;28.64;33.92;100289.63;6205639;22;20026;-94
2022/08/12 15:29:32;;;;;;;231.65;24.27;;;;;;;28.32;34.59;100265.31;6233252;22;20023;-91
2022/08/12 15:32:11;;;;;;;385.85;38.45;;;;;;;27.95;34.47;100237.03;6215297;22;20067;-91
2022/08/12 15:34:57;;;;;;;476.23;46.83;;;;;;;28.00;33.78;100268.28;6264171;22;20019;-95
2022/08/12 15:37:27;;;;;;;84.25;10.93;;;;;;;27.99;31.73;100263.88;6209061;22;20023;-92
2022/08/12 15:39:54;;;;;;;201.82;20.08;;;;;;;27.83;32.07;100225.00;6205535;22;20026;-93
2022/08/12 15:42:20;;;;;;;207.68;22.33;;;;;;;27.79;34.94;100235.47;6203948;22;20012;-90
2022/08/12 15:44:55;;;;;;;760.00;82.57;;;;;;;27.61;34.01;100224.25;6202928;22;20019;-94
2022/08/12 15:47:21;;;;;;;644.78;69.05;;;;;;;27.58;35.81;100229.91;6178790;22;20054;-93
2022/08/12 15:50:14;;;;;;;276.38;30.98;;;;;;;27.60;34.77;100289.28;6203199;22;20453;-93
2022/08/12 15:52:44;;;;;;;388.00;40.35;;;;;;;26.92;36.65;100203.19;6223557;22;20453;-92
2022/08/12 15:55:15;;;;;;;433.63;39.47;;;;;;;26.83;35.82;100216.00;6255389;22;20392;-96
2022/08/12 15:57:52;;;;;;;355.40;34.22;;;;;;;26.59;34.79;100200.75;6182068;22;20115;-93
2022/08/12 16:00:47;;;;;;;356.42;33.33;;;;;;;26.60;34.06;100227.63;6230215;22;20022;-94
2022/08/12 16:03:48;;;;;;;;;;;;;;;26.85;32.25;100278.09;6230705;22;20020;-91
2022/08/12 16:06:18;;;;;;;471.52;50.17;;;;;;;26.22;34.15;100197.13;6206191;22;20360;-93
2022/08/12 16:08:54;;;;;;;325.92;34.53;;;;;;;26.39;33.79;100251.63;6230607;22;20020;-93
2022/08/12 16:12:10;;;;;;;234.77;25.80;;;;;;;26.44;34.62;100282.06;6255573;22;20161;-94
2022/08/12 16:14:37;;;;;;;157.35;18.48;;;;;;;25.92;36.14;100217.03;6205791;22;20015;-92
2022/08/12 16:17:04;;;;;;;133.82;16.48;;;;;;;25.92;37.45;100239.44;6205882;22;20027;-94
2022/08/12 16:19:44;;;;;;;106.95;14.57;;;;;;;25.71;35.50;100225.34;6232190;22;20011;-91
2022/08/12 16:22:37;;;;;;;114.30;23.02;;;;;;;25.70;38.77;100249.75;6184598;23;20048;-93
2022/08/12 16:25:05;;;;;;;137.65;26.92;;;;;;;25.53;39.11;100254.06;6202330;22;20119;-94
2022/08/12 16:27:35;;;;;;;223.90;30.40;;;;;;;25.29;38.21;100238.72;6260148;22;20041;-93
2022/08/12 16:30:12;;;;;;;171.98;24.90;;;;;;;25.17;37.49;100232.66;6232780;22;20012;-92
2022/08/12 16:32:39;;;;;;;117.90;14.05;;;;;;;25.42;36.49;100292.38;6207675;22;20153;-93
2022/08/12 16:35:07;;;;;;;181.80;19.23;;;;;;;25.01;38.62;100239.31;6134155;23;1974437;-91
2022/08/12 16:37:37;;;;;;;;;;;;;;;25.23;38.55;100284.25;6224971;23;20395;-94